METAR Data
IDs: Format: Raw Decoded Include TAF

Data at: 1100 UTC 18 Jan 2022

KUSE 181055Z AUTO 24009G15KT 10SM OVC060 M04/M04 A2997 RMK AO2